sensor_id;sensor_type;location;lat;lon;timestamp;temperature;humidity
4530;DHT22;2277;51.626;7.516;2023-12-28T00:02:02;10.00;99.90
4530;DHT22;2277;51.626;7.516;2023-12-28T00:04:28;9.80;99.90
4530;DHT22;2277;51.626;7.516;2023-12-28T00:06:53;9.80;99.90
4530;DHT22;2277;51.626;7.516;2023-12-28T00:09:19;9.80;99.90
4530;DHT22;2277;51.626;7.516;2023-12-28T00:11:44;9.70;99.90
4530;DHT22;2277;51.626;7.516;2023-12-28T00:14:10;9.60;99.90
4530;DHT22;2277;51.626;7.516;2023-12-28T00:16:36;9.60;99.90
4530;DHT22;2277;51.626;7.516;2023-12-28T00:19:03;9.60;99.90
4530;DHT22;2277;51.626;7.516;2023-12-28T00:21:32;9.60;99.90
4530;DHT22;2277;51.626;7.516;2023-12-28T00:23:58;9.50;99.90
4530;DHT22;2277;51.626;7.516;2023-12-28T00:26:24;9.50;99.90
4530;DHT22;2277;51.626;7.516;2023-12-28T00:28:49;9.40;99.90
4530;DHT22;2277;51.626;7.516;2023-12-28T00:31:15;9.40;99.90
4530;DHT22;2277;51.626;7.516;2023-12-28T00:33:40;9.30;99.90
4530;DHT22;2277;51.626;7.516;2023-12-28T00:36:06;9.30;99.90
4530;DHT22;2277;51.626;7.516;2023-12-28T00:38:32;9.30;99.90
4530;DHT22;2277;51.626;7.516;2023-12-28T00:40:57;9.40;99.90
4530;DHT22;2277;51.626;7.516;2023-12-28T00:43:23;9.40;99.90
4530;DHT22;2277;51.626;7.516;2023-12-28T00:45:49;9.40;99.90
4530;DHT22;2277;51.626;7.516;2023-12-28T00:48:14;9.40;99.90
4530;DHT22;2277;51.626;7.516;2023-12-28T00:50:40;9.40;99.90
4530;DHT22;2277;51.626;7.516;2023-12-28T00:53:06;9.40;99.90
4530;DHT22;2277;51.626;7.516;2023-12-28T00:55:31;9.40;99.90
4530;DHT22;2277;51.626;7.516;2023-12-28T00:57:57;9.40;99.90
4530;DHT22;2277;51.626;7.516;2023-12-28T01:00:22;9.40;99.90
4530;DHT22;2277;51.626;7.516;2023-12-28T01:02:48;9.30;99.90
4530;DHT22;2277;51.626;7.516;2023-12-28T01:05:14;9.30;99.90
4530;DHT22;2277;51.626;7.516;2023-12-28T01:07:40;9.40;99.90
4530;DHT22;2277;51.626;7.516;2023-12-28T01:10:06;9.40;99.90
4530;DHT22;2277;51.626;7.516;2023-12-28T01:12:33;9.40;99.90
4530;DHT22;2277;51.626;7.516;2023-12-28T01:14:58;9.40;99.90
4530;DHT22;2277;51.626;7.516;2023-12-28T01:17:24;9.50;99.90
4530;DHT22;2277;51.626;7.516;2023-12-28T01:19:49;9.40;99.90
4530;DHT22;2277;51.626;7.516;2023-12-28T01:22:15;9.50;99.90
4530;DHT22;2277;51.626;7.516;2023-12-28T01:24:41;9.40;99.90
4530;DHT22;2277;51.626;7.516;2023-12-28T01:27:06;9.50;99.90
4530;DHT22;2277;51.626;7.516;2023-12-28T01:29:32;9.40;99.90
4530;DHT22;2277;51.626;7.516;2023-12-28T01:31:59;9.50;99.90
4530;DHT22;2277;51.626;7.516;2023-12-28T01:34:25;9.50;99.90
4530;DHT22;2277;51.626;7.516;2023-12-28T01:36:50;9.50;99.90
4530;DHT22;2277;51.626;7.516;2023-12-28T01:39:16;9.60;99.90
4530;DHT22;2277;51.626;7.516;2023-12-28T01:41:44;9.60;99.90
4530;DHT22;2277;51.626;7.516;2023-12-28T01:44:11;9.60;99.90
4530;DHT22;2277;51.626;7.516;2023-12-28T01:46:36;9.60;99.90
4530;DHT22;2277;51.626;7.516;2023-12-28T01:49:03;9.60;99.90
4530;DHT22;2277;51.626;7.516;2023-12-28T01:51:29;9.60;99.90
4530;DHT22;2277;51.626;7.516;2023-12-28T01:53:54;9.50;99.90
4530;DHT22;2277;51.626;7.516;2023-12-28T01:56:21;9.50;99.90
4530;DHT22;2277;51.626;7.516;2023-12-28T01:58:49;9.70;99.90
4530;DHT22;2277;51.626;7.516;2023-12-28T02:01:14;9.70;99.90
4530;DHT22;2277;51.626;7.516;2023-12-28T02:03:40;9.80;99.90
4530;DHT22;2277;51.626;7.516;2023-12-28T02:06:07;9.80;99.90
4530;DHT22;2277;51.626;7.516;2023-12-28T02:08:32;9.80;99.90
4530;DHT22;2277;51.626;7.516;2023-12-28T02:10:58;9.90;99.90
4530;DHT22;2277;51.626;7.516;2023-12-28T02:13:24;9.90;99.90
4530;DHT22;2277;51.626;7.516;2023-12-28T02:18:49;10.10;99.90
4530;DHT22;2277;51.626;7.516;2023-12-28T02:21:16;10.10;99.90
4530;DHT22;2277;51.626;7.516;2023-12-28T02:23:49;10.10;99.90
4530;DHT22;2277;51.626;7.516;2023-12-28T02:26:18;10.10;99.90
4530;DHT22;2277;51.626;7.516;2023-12-28T02:28:44;10.20;99.90
4530;DHT22;2277;51.626;7.516;2023-12-28T02:31:21;10.20;99.90
4530;DHT22;2277;51.626;7.516;2023-12-28T02:34:01;10.30;99.90
4530;DHT22;2277;51.626;7.516;2023-12-28T02:36:28;10.40;99.90
4530;DHT22;2277;51.626;7.516;2023-12-28T02:38:56;10.40;99.90
4530;DHT22;2277;51.626;7.516;2023-12-28T02:41:24;10.40;99.90
4530;DHT22;2277;51.626;7.516;2023-12-28T02:43:51;10.50;99.90
4530;DHT22;2277;51.626;7.516;2023-12-28T02:46:16;10.50;99.90
4530;DHT22;2277;51.626;7.516;2023-12-28T02:48:43;10.40;99.90
4530;DHT22;2277;51.626;7.516;2023-12-28T02:51:09;10.50;99.90
4530;DHT22;2277;51.626;7.516;2023-12-28T02:53:35;10.50;99.90
4530;DHT22;2277;51.626;7.516;2023-12-28T02:56:00;10.50;99.90
4530;DHT22;2277;51.626;7.516;2023-12-28T02:58:26;10.50;99.90
4530;DHT22;2277;51.626;7.516;2023-12-28T03:00:51;10.60;99.90
4530;DHT22;2277;51.626;7.516;2023-12-28T03:03:17;10.60;99.90
4530;DHT22;2277;51.626;7.516;2023-12-28T03:05:42;10.60;99.90
4530;DHT22;2277;51.626;7.516;2023-12-28T03:08:08;10.70;99.90
4530;DHT22;2277;51.626;7.516;2023-12-28T03:10:34;10.70;99.90
4530;DHT22;2277;51.626;7.516;2023-12-28T03:12:59;10.80;99.90
4530;DHT22;2277;51.626;7.516;2023-12-28T03:15:26;10.70;99.90
4530;DHT22;2277;51.626;7.516;2023-12-28T03:17:51;10.80;99.90
4530;DHT22;2277;51.626;7.516;2023-12-28T03:20:17;10.80;99.90
4530;DHT22;2277;51.626;7.516;2023-12-28T03:22:42;10.70;99.90
4530;DHT22;2277;51.626;7.516;2023-12-28T03:25:08;10.70;99.90
4530;DHT22;2277;51.626;7.516;2023-12-28T03:27:34;10.70;99.90
4530;DHT22;2277;51.626;7.516;2023-12-28T03:29:59;10.70;99.90
4530;DHT22;2277;51.626;7.516;2023-12-28T03:32:25;10.70;99.90
4530;DHT22;2277;51.626;7.516;2023-12-28T03:34:50;10.80;99.90
4530;DHT22;2277;51.626;7.516;2023-12-28T03:37:16;10.80;99.90
4530;DHT22;2277;51.626;7.516;2023-12-28T03:39:41;10.80;99.90
4530;DHT22;2277;51.626;7.516;2023-12-28T03:42:07;10.70;99.90
4530;DHT22;2277;51.626;7.516;2023-12-28T03:44:33;10.70;99.90
4530;DHT22;2277;51.626;7.516;2023-12-28T03:46:58;10.70;99.90
4530;DHT22;2277;51.626;7.516;2023-12-28T03:49:25;10.70;99.90
4530;DHT22;2277;51.626;7.516;2023-12-28T03:51:51;10.50;99.90
4530;DHT22;2277;51.626;7.516;2023-12-28T03:54:17;10.60;99.90
4530;DHT22;2277;51.626;7.516;2023-12-28T03:56:44;10.70;99.90
4530;DHT22;2277;51.626;7.516;2023-12-28T03:59:10;10.70;99.90
4530;DHT22;2277;51.626;7.516;2023-12-28T04:01:35;10.70;99.90
4530;DHT22;2277;51.626;7.516;2023-12-28T04:04:01;10.70;99.90
4530;DHT22;2277;51.626;7.516;2023-12-28T04:06:27;10.70;99.90
4530;DHT22;2277;51.626;7.516;2023-12-28T04:08:53;10.70;99.90
4530;DHT22;2277;51.626;7.516;2023-12-28T04:11:18;10.60;99.90
4530;DHT22;2277;51.626;7.516;2023-12-28T04:13:44;10.60;99.90
4530;DHT22;2277;51.626;7.516;2023-12-28T04:16:13;10.60;99.90
4530;DHT22;2277;51.626;7.516;2023-12-28T04:18:40;10.60;99.90
4530;DHT22;2277;51.626;7.516;2023-12-28T04:21:08;10.50;99.90
4530;DHT22;2277;51.626;7.516;2023-12-28T04:23:36;10.70;99.90
4530;DHT22;2277;51.626;7.516;2023-12-28T04:26:01;10.70;99.90
4530;DHT22;2277;51.626;7.516;2023-12-28T04:28:27;10.70;99.90
4530;DHT22;2277;51.626;7.516;2023-12-28T04:30:53;10.70;99.90
4530;DHT22;2277;51.626;7.516;2023-12-28T04:33:18;10.60;99.90
4530;DHT22;2277;51.626;7.516;2023-12-28T04:35:47;10.70;99.90
4530;DHT22;2277;51.626;7.516;2023-12-28T04:38:12;10.80;99.90
4530;DHT22;2277;51.626;7.516;2023-12-28T04:40:38;10.70;99.90
4530;DHT22;2277;51.626;7.516;2023-12-28T04:43:04;10.80;99.90
4530;DHT22;2277;51.626;7.516;2023-12-28T04:45:29;10.80;99.90
4530;DHT22;2277;51.626;7.516;2023-12-28T04:47:55;10.80;99.90
4530;DHT22;2277;51.626;7.516;2023-12-28T04:50:21;10.80;99.90
4530;DHT22;2277;51.626;7.516;2023-12-28T04:52:46;10.80;99.90
4530;DHT22;2277;51.626;7.516;2023-12-28T04:55:12;10.90;99.90
4530;DHT22;2277;51.626;7.516;2023-12-28T04:57:37;11.00;99.90
4530;DHT22;2277;51.626;7.516;2023-12-28T05:00:04;10.90;99.90
4530;DHT22;2277;51.626;7.516;2023-12-28T05:02:30;10.90;99.90
4530;DHT22;2277;51.626;7.516;2023-12-28T05:04:55;11.00;99.90
4530;DHT22;2277;51.626;7.516;2023-12-28T05:07:21;11.00;99.90
4530;DHT22;2277;51.626;7.516;2023-12-28T05:09:46;11.00;99.90
4530;DHT22;2277;51.626;7.516;2023-12-28T05:12:12;11.10;99.90
4530;DHT22;2277;51.626;7.516;2023-12-28T05:14:37;11.10;99.90
4530;DHT22;2277;51.626;7.516;2023-12-28T05:17:03;11.10;99.90
4530;DHT22;2277;51.626;7.516;2023-12-28T05:19:29;11.20;99.90
4530;DHT22;2277;51.626;7.516;2023-12-28T05:21:55;11.20;99.90
4530;DHT22;2277;51.626;7.516;2023-12-28T05:24:21;11.20;99.90
4530;DHT22;2277;51.626;7.516;2023-12-28T05:26:46;11.20;99.90
4530;DHT22;2277;51.626;7.516;2023-12-28T05:29:12;11.20;99.90
4530;DHT22;2277;51.626;7.516;2023-12-28T05:31:37;11.20;99.90
4530;DHT22;2277;51.626;7.516;2023-12-28T05:34:03;11.20;99.90
4530;DHT22;2277;51.626;7.516;2023-12-28T05:36:29;11.20;99.90
4530;DHT22;2277;51.626;7.516;2023-12-28T05:38:55;11.20;99.90
4530;DHT22;2277;51.626;7.516;2023-12-28T05:41:20;11.10;99.90
4530;DHT22;2277;51.626;7.516;2023-12-28T05:43:46;11.10;99.90
4530;DHT22;2277;51.626;7.516;2023-12-28T05:46:11;11.20;99.90
4530;DHT22;2277;51.626;7.516;2023-12-28T05:48:37;11.20;99.90
4530;DHT22;2277;51.626;7.516;2023-12-28T05:51:03;11.20;99.90
4530;DHT22;2277;51.626;7.516;2023-12-28T05:53:28;11.30;99.90
4530;DHT22;2277;51.626;7.516;2023-12-28T05:55:54;11.20;99.90
4530;DHT22;2277;51.626;7.516;2023-12-28T05:58:20;11.30;99.90
4530;DHT22;2277;51.626;7.516;2023-12-28T06:00:46;11.30;99.90
4530;DHT22;2277;51.626;7.516;2023-12-28T06:03:14;11.30;99.90
4530;DHT22;2277;51.626;7.516;2023-12-28T06:05:40;11.30;99.90
4530;DHT22;2277;51.626;7.516;2023-12-28T06:08:06;11.30;99.90
4530;DHT22;2277;51.626;7.516;2023-12-28T06:10:31;11.30;99.90
4530;DHT22;2277;51.626;7.516;2023-12-28T06:12:57;11.40;99.90
4530;DHT22;2277;51.626;7.516;2023-12-28T06:15:23;11.30;99.90
4530;DHT22;2277;51.626;7.516;2023-12-28T06:17:49;11.30;99.90
4530;DHT22;2277;51.626;7.516;2023-12-28T06:20:14;11.30;99.90
4530;DHT22;2277;51.626;7.516;2023-12-28T06:22:40;11.30;99.90
4530;DHT22;2277;51.626;7.516;2023-12-28T06:25:06;11.30;99.90
4530;DHT22;2277;51.626;7.516;2023-12-28T06:27:32;11.20;99.90
4530;DHT22;2277;51.626;7.516;2023-12-28T06:29:58;11.20;99.90
4530;DHT22;2277;51.626;7.516;2023-12-28T06:32:23;11.20;99.90
4530;DHT22;2277;51.626;7.516;2023-12-28T06:34:49;11.10;99.90
4530;DHT22;2277;51.626;7.516;2023-12-28T06:37:15;11.20;99.90
4530;DHT22;2277;51.626;7.516;2023-12-28T06:39:40;11.20;99.90
4530;DHT22;2277;51.626;7.516;2023-12-28T06:42:06;11.20;99.90
4530;DHT22;2277;51.626;7.516;2023-12-28T06:44:32;11.20;99.90
4530;DHT22;2277;51.626;7.516;2023-12-28T06:46:58;11.20;99.90
4530;DHT22;2277;51.626;7.516;2023-12-28T06:49:24;11.20;99.90
4530;DHT22;2277;51.626;7.516;2023-12-28T06:51:50;11.20;99.90
4530;DHT22;2277;51.626;7.516;2023-12-28T06:54:15;11.20;99.90
4530;DHT22;2277;51.626;7.516;2023-12-28T06:56:41;11.20;99.90
4530;DHT22;2277;51.626;7.516;2023-12-28T06:59:07;11.20;99.90
4530;DHT22;2277;51.626;7.516;2023-12-28T07:01:33;11.20;99.90
4530;DHT22;2277;51.626;7.516;2023-12-28T07:03:58;11.10;99.90
4530;DHT22;2277;51.626;7.516;2023-12-28T07:06:25;11.10;99.90
4530;DHT22;2277;51.626;7.516;2023-12-28T07:08:50;11.10;99.90
4530;DHT22;2277;51.626;7.516;2023-12-28T07:11:16;11.10;99.90
4530;DHT22;2277;51.626;7.516;2023-12-28T07:13:42;11.10;99.90
4530;DHT22;2277;51.626;7.516;2023-12-28T07:16:07;11.10;99.90
4530;DHT22;2277;51.626;7.516;2023-12-28T07:18:33;11.10;99.90
4530;DHT22;2277;51.626;7.516;2023-12-28T07:20:59;11.00;99.90
4530;DHT22;2277;51.626;7.516;2023-12-28T07:23:26;11.10;99.90
4530;DHT22;2277;51.626;7.516;2023-12-28T07:25:52;11.00;99.90
4530;DHT22;2277;51.626;7.516;2023-12-28T07:28:18;11.00;99.90
4530;DHT22;2277;51.626;7.516;2023-12-28T07:30:43;11.00;99.90
4530;DHT22;2277;51.626;7.516;2023-12-28T07:33:09;11.00;99.90
4530;DHT22;2277;51.626;7.516;2023-12-28T07:35:35;11.00;99.90
4530;DHT22;2277;51.626;7.516;2023-12-28T07:38:00;11.00;99.90
4530;DHT22;2277;51.626;7.516;2023-12-28T07:40:26;11.10;99.90
4530;DHT22;2277;51.626;7.516;2023-12-28T07:42:53;11.00;99.90
4530;DHT22;2277;51.626;7.516;2023-12-28T07:45:18;11.00;99.90
4530;DHT22;2277;51.626;7.516;2023-12-28T07:47:49;11.00;99.90
4530;DHT22;2277;51.626;7.516;2023-12-28T07:50:16;11.00;99.90
4530;DHT22;2277;51.626;7.516;2023-12-28T07:52:42;11.00;99.90
4530;DHT22;2277;51.626;7.516;2023-12-28T07:55:08;11.00;99.90
4530;DHT22;2277;51.626;7.516;2023-12-28T07:57:34;11.00;99.90
4530;DHT22;2277;51.626;7.516;2023-12-28T08:00:00;11.00;99.90
4530;DHT22;2277;51.626;7.516;2023-12-28T08:02:26;11.00;99.90
4530;DHT22;2277;51.626;7.516;2023-12-28T08:04:52;11.10;99.90
4530;DHT22;2277;51.626;7.516;2023-12-28T08:07:18;11.10;99.90
4530;DHT22;2277;51.626;7.516;2023-12-28T08:09:44;11.10;99.90
4530;DHT22;2277;51.626;7.516;2023-12-28T08:12:09;11.10;99.90
4530;DHT22;2277;51.626;7.516;2023-12-28T08:14:35;11.20;99.90
4530;DHT22;2277;51.626;7.516;2023-12-28T08:17:01;11.00;99.90
4530;DHT22;2277;51.626;7.516;2023-12-28T08:19:26;11.10;99.90
4530;DHT22;2277;51.626;7.516;2023-12-28T08:21:52;11.10;99.90
4530;DHT22;2277;51.626;7.516;2023-12-28T08:24:17;11.10;99.90
4530;DHT22;2277;51.626;7.516;2023-12-28T08:26:43;11.10;99.90
4530;DHT22;2277;51.626;7.516;2023-12-28T08:29:08;11.00;99.90
4530;DHT22;2277;51.626;7.516;2023-12-28T08:31:34;11.10;99.90
4530;DHT22;2277;51.626;7.516;2023-12-28T08:34:00;11.10;99.90
4530;DHT22;2277;51.626;7.516;2023-12-28T08:36:25;11.10;99.90
4530;DHT22;2277;51.626;7.516;2023-12-28T08:38:51;11.20;99.90
4530;DHT22;2277;51.626;7.516;2023-12-28T08:41:24;11.20;99.90
4530;DHT22;2277;51.626;7.516;2023-12-28T08:43:50;11.30;99.90
4530;DHT22;2277;51.626;7.516;2023-12-28T08:46:17;11.30;99.90
4530;DHT22;2277;51.626;7.516;2023-12-28T08:48:43;11.40;99.90
4530;DHT22;2277;51.626;7.516;2023-12-28T08:51:11;11.50;99.90
4530;DHT22;2277;51.626;7.516;2023-12-28T08:53:37;11.60;99.90
4530;DHT22;2277;51.626;7.516;2023-12-28T08:56:12;11.70;99.90
4530;DHT22;2277;51.626;7.516;2023-12-28T08:58:38;11.70;99.90
4530;DHT22;2277;51.626;7.516;2023-12-28T09:01:04;11.80;99.90
4530;DHT22;2277;51.626;7.516;2023-12-28T09:03:29;11.80;99.90
4530;DHT22;2277;51.626;7.516;2023-12-28T09:05:55;11.80;99.90
4530;DHT22;2277;51.626;7.516;2023-12-28T09:08:20;11.80;99.90
4530;DHT22;2277;51.626;7.516;2023-12-28T09:10:46;11.80;99.90
4530;DHT22;2277;51.626;7.516;2023-12-28T09:13:15;11.80;99.90
4530;DHT22;2277;51.626;7.516;2023-12-28T09:15:42;11.90;99.90
4530;DHT22;2277;51.626;7.516;2023-12-28T09:18:08;11.70;99.90
4530;DHT22;2277;51.626;7.516;2023-12-28T09:20:33;11.80;99.90
4530;DHT22;2277;51.626;7.516;2023-12-28T09:23:01;11.80;99.90
4530;DHT22;2277;51.626;7.516;2023-12-28T09:25:26;11.80;99.90
4530;DHT22;2277;51.626;7.516;2023-12-28T09:27:52;11.80;99.90
4530;DHT22;2277;51.626;7.516;2023-12-28T09:30:18;11.70;99.90
4530;DHT22;2277;51.626;7.516;2023-12-28T09:32:44;11.80;99.90
4530;DHT22;2277;51.626;7.516;2023-12-28T09:35:10;11.80;99.90
4530;DHT22;2277;51.626;7.516;2023-12-28T09:37:35;11.70;99.90
4530;DHT22;2277;51.626;7.516;2023-12-28T09:40:01;11.60;99.90
4530;DHT22;2277;51.626;7.516;2023-12-28T09:42:31;11.70;99.90
4530;DHT22;2277;51.626;7.516;2023-12-28T09:44:57;11.70;99.90
4530;DHT22;2277;51.626;7.516;2023-12-28T09:47:23;11.70;99.90
4530;DHT22;2277;51.626;7.516;2023-12-28T09:49:48;11.80;99.90
4530;DHT22;2277;51.626;7.516;2023-12-28T09:52:14;11.70;99.90
4530;DHT22;2277;51.626;7.516;2023-12-28T09:54:40;11.70;99.90
4530;DHT22;2277;51.626;7.516;2023-12-28T09:57:05;11.70;99.90
4530;DHT22;2277;51.626;7.516;2023-12-28T09:59:32;11.70;99.90
4530;DHT22;2277;51.626;7.516;2023-12-28T10:02:00;11.70;99.90
4530;DHT22;2277;51.626;7.516;2023-12-28T10:04:28;11.80;99.90
4530;DHT22;2277;51.626;7.516;2023-12-28T10:06:54;11.80;99.90
4530;DHT22;2277;51.626;7.516;2023-12-28T10:09:21;11.90;99.90
4530;DHT22;2277;51.626;7.516;2023-12-28T10:11:47;11.90;99.90
4530;DHT22;2277;51.626;7.516;2023-12-28T10:14:13;12.00;99.90
4530;DHT22;2277;51.626;7.516;2023-12-28T10:16:42;11.90;99.90
4530;DHT22;2277;51.626;7.516;2023-12-28T10:19:07;11.90;99.90
4530;DHT22;2277;51.626;7.516;2023-12-28T10:21:33;11.90;99.90
4530;DHT22;2277;51.626;7.516;2023-12-28T10:23:59;11.90;99.90
4530;DHT22;2277;51.626;7.516;2023-12-28T10:26:25;11.90;99.90
4530;DHT22;2277;51.626;7.516;2023-12-28T10:28:59;11.90;99.90
4530;DHT22;2277;51.626;7.516;2023-12-28T10:31:25;11.90;99.90
4530;DHT22;2277;51.626;7.516;2023-12-28T10:33:51;11.90;99.90
4530;DHT22;2277;51.626;7.516;2023-12-28T10:36:18;11.90;99.90
4530;DHT22;2277;51.626;7.516;2023-12-28T10:38:45;11.90;99.90
4530;DHT22;2277;51.626;7.516;2023-12-28T10:41:13;12.00;99.90
4530;DHT22;2277;51.626;7.516;2023-12-28T10:43:50;12.00;99.90
4530;DHT22;2277;51.626;7.516;2023-12-28T10:46:31;12.00;99.90
4530;DHT22;2277;51.626;7.516;2023-12-28T10:49:05;11.90;99.90
4530;DHT22;2277;51.626;7.516;2023-12-28T10:51:36;11.90;99.90
4530;DHT22;2277;51.626;7.516;2023-12-28T10:56:47;11.90;99.90
4530;DHT22;2277;51.626;7.516;2023-12-28T10:59:17;11.90;99.90
4530;DHT22;2277;51.626;7.516;2023-12-28T11:01:47;12.00;99.90
4530;DHT22;2277;51.626;7.516;2023-12-28T11:04:27;12.00;99.90
4530;DHT22;2277;51.626;7.516;2023-12-28T11:06:56;11.90;99.90
4530;DHT22;2277;51.626;7.516;2023-12-28T11:09:24;11.90;99.90
4530;DHT22;2277;51.626;7.516;2023-12-28T11:11:53;12.00;99.90
4530;DHT22;2277;51.626;7.516;2023-12-28T11:14:21;12.00;99.90
4530;DHT22;2277;51.626;7.516;2023-12-28T11:16:47;12.00;99.90
4530;DHT22;2277;51.626;7.516;2023-12-28T11:19:13;12.10;99.90
4530;DHT22;2277;51.626;7.516;2023-12-28T11:21:39;12.10;99.90
4530;DHT22;2277;51.626;7.516;2023-12-28T11:24:06;12.10;99.90
4530;DHT22;2277;51.626;7.516;2023-12-28T11:26:32;12.10;99.90
4530;DHT22;2277;51.626;7.516;2023-12-28T11:29:04;12.10;99.90
4530;DHT22;2277;51.626;7.516;2023-12-28T11:31:33;12.10;99.90
4530;DHT22;2277;51.626;7.516;2023-12-28T11:34:04;12.20;99.90
4530;DHT22;2277;51.626;7.516;2023-12-28T11:36:35;12.20;99.90
4530;DHT22;2277;51.626;7.516;2023-12-28T11:39:06;12.30;99.90
4530;DHT22;2277;51.626;7.516;2023-12-28T11:41:33;12.20;99.90
4530;DHT22;2277;51.626;7.516;2023-12-28T11:44:02;12.20;99.90
4530;DHT22;2277;51.626;7.516;2023-12-28T11:46:30;12.20;99.90
4530;DHT22;2277;51.626;7.516;2023-12-28T11:49:09;12.30;99.90
4530;DHT22;2277;51.626;7.516;2023-12-28T11:51:39;12.30;99.90
4530;DHT22;2277;51.626;7.516;2023-12-28T11:54:05;12.30;99.90
4530;DHT22;2277;51.626;7.516;2023-12-28T11:56:31;12.30;99.90
4530;DHT22;2277;51.626;7.516;2023-12-28T11:58:58;12.40;99.90
4530;DHT22;2277;51.626;7.516;2023-12-28T12:01:24;12.40;99.90
4530;DHT22;2277;51.626;7.516;2023-12-28T12:03:50;12.40;99.90
4530;DHT22;2277;51.626;7.516;2023-12-28T12:06:15;12.40;99.90
4530;DHT22;2277;51.626;7.516;2023-12-28T12:08:45;12.40;99.90
4530;DHT22;2277;51.626;7.516;2023-12-28T12:11:11;12.50;99.90
4530;DHT22;2277;51.626;7.516;2023-12-28T12:13:37;12.50;99.90
4530;DHT22;2277;51.626;7.516;2023-12-28T12:16:03;12.60;99.90
4530;DHT22;2277;51.626;7.516;2023-12-28T12:18:34;12.60;99.90
4530;DHT22;2277;51.626;7.516;2023-12-28T12:21:01;12.60;99.90
4530;DHT22;2277;51.626;7.516;2023-12-28T12:23:28;12.70;99.90
4530;DHT22;2277;51.626;7.516;2023-12-28T12:25:53;12.70;99.90
4530;DHT22;2277;51.626;7.516;2023-12-28T12:28:19;12.70;99.90
4530;DHT22;2277;51.626;7.516;2023-12-28T12:30:54;12.80;99.90
4530;DHT22;2277;51.626;7.516;2023-12-28T12:33:25;12.70;99.90
4530;DHT22;2277;51.626;7.516;2023-12-28T12:35:51;12.70;99.90
4530;DHT22;2277;51.626;7.516;2023-12-28T12:38:17;12.70;99.90
4530;DHT22;2277;51.626;7.516;2023-12-28T12:40:43;12.60;99.90
4530;DHT22;2277;51.626;7.516;2023-12-28T12:43:08;12.60;99.90
4530;DHT22;2277;51.626;7.516;2023-12-28T12:45:34;12.70;99.90
4530;DHT22;2277;51.626;7.516;2023-12-28T12:48:02;12.70;99.90
4530;DHT22;2277;51.626;7.516;2023-12-28T12:50:28;12.70;99.90
4530;DHT22;2277;51.626;7.516;2023-12-28T12:52:54;12.70;99.90
4530;DHT22;2277;51.626;7.516;2023-12-28T12:55:19;12.70;99.90
4530;DHT22;2277;51.626;7.516;2023-12-28T12:57:45;12.80;99.90
4530;DHT22;2277;51.626;7.516;2023-12-28T13:00:11;12.80;99.90
4530;DHT22;2277;51.626;7.516;2023-12-28T13:02:37;12.80;99.90
4530;DHT22;2277;51.626;7.516;2023-12-28T13:05:03;12.80;99.90
4530;DHT22;2277;51.626;7.516;2023-12-28T13:07:30;12.80;99.90
4530;DHT22;2277;51.626;7.516;2023-12-28T13:09:56;12.80;99.90
4530;DHT22;2277;51.626;7.516;2023-12-28T13:12:22;12.70;99.90
4530;DHT22;2277;51.626;7.516;2023-12-28T13:14:47;12.70;99.90
4530;DHT22;2277;51.626;7.516;2023-12-28T13:17:13;12.70;99.90
4530;DHT22;2277;51.626;7.516;2023-12-28T13:19:38;12.70;99.90
4530;DHT22;2277;51.626;7.516;2023-12-28T13:22:04;12.70;99.90
4530;DHT22;2277;51.626;7.516;2023-12-28T13:24:30;12.70;99.90
4530;DHT22;2277;51.626;7.516;2023-12-28T13:26:56;12.70;99.90
4530;DHT22;2277;51.626;7.516;2023-12-28T13:29:22;12.70;99.90
4530;DHT22;2277;51.626;7.516;2023-12-28T13:31:48;12.60;99.90
4530;DHT22;2277;51.626;7.516;2023-12-28T13:34:16;12.60;99.90
4530;DHT22;2277;51.626;7.516;2023-12-28T13:36:41;12.70;99.90
4530;DHT22;2277;51.626;7.516;2023-12-28T13:39:07;12.70;99.90
4530;DHT22;2277;51.626;7.516;2023-12-28T13:41:37;12.70;99.90
4530;DHT22;2277;51.626;7.516;2023-12-28T13:44:03;12.80;99.90
4530;DHT22;2277;51.626;7.516;2023-12-28T13:46:30;12.80;99.90
4530;DHT22;2277;51.626;7.516;2023-12-28T13:48:55;12.70;99.90
4530;DHT22;2277;51.626;7.516;2023-12-28T13:51:22;12.70;99.90
4530;DHT22;2277;51.626;7.516;2023-12-28T13:53:48;12.70;99.90
4530;DHT22;2277;51.626;7.516;2023-12-28T13:56:13;12.70;99.90
4530;DHT22;2277;51.626;7.516;2023-12-28T13:58:39;12.70;99.90
4530;DHT22;2277;51.626;7.516;2023-12-28T14:01:05;12.70;99.90
4530;DHT22;2277;51.626;7.516;2023-12-28T14:03:30;12.60;99.90
4530;DHT22;2277;51.626;7.516;2023-12-28T14:05:56;12.70;99.90
4530;DHT22;2277;51.626;7.516;2023-12-28T14:08:21;12.70;99.90
4530;DHT22;2277;51.626;7.516;2023-12-28T14:10:47;12.70;99.90
4530;DHT22;2277;51.626;7.516;2023-12-28T14:13:12;12.80;99.90
4530;DHT22;2277;51.626;7.516;2023-12-28T14:15:38;12.70;99.90
4530;DHT22;2277;51.626;7.516;2023-12-28T14:18:04;12.70;99.90
4530;DHT22;2277;51.626;7.516;2023-12-28T14:20:31;12.60;99.90
4530;DHT22;2277;51.626;7.516;2023-12-28T14:22:57;12.60;99.90
4530;DHT22;2277;51.626;7.516;2023-12-28T14:25:23;12.60;99.90
4530;DHT22;2277;51.626;7.516;2023-12-28T14:27:49;12.60;99.90
4530;DHT22;2277;51.626;7.516;2023-12-28T14:30:16;12.60;99.90
4530;DHT22;2277;51.626;7.516;2023-12-28T14:32:41;12.60;99.90
4530;DHT22;2277;51.626;7.516;2023-12-28T14:35:08;12.50;99.90
4530;DHT22;2277;51.626;7.516;2023-12-28T14:37:33;12.50;99.90
4530;DHT22;2277;51.626;7.516;2023-12-28T14:39:59;12.50;99.90
4530;DHT22;2277;51.626;7.516;2023-12-28T14:42:25;12.40;99.90
4530;DHT22;2277;51.626;7.516;2023-12-28T14:44:50;12.40;99.90
4530;DHT22;2277;51.626;7.516;2023-12-28T14:47:17;12.40;99.90
4530;DHT22;2277;51.626;7.516;2023-12-28T14:49:42;12.40;99.90
4530;DHT22;2277;51.626;7.516;2023-12-28T14:52:10;12.40;99.90
4530;DHT22;2277;51.626;7.516;2023-12-28T14:54:35;12.40;99.90
4530;DHT22;2277;51.626;7.516;2023-12-28T14:57:01;12.40;99.90
4530;DHT22;2277;51.626;7.516;2023-12-28T14:59:26;12.40;99.90
4530;DHT22;2277;51.626;7.516;2023-12-28T15:01:52;12.40;99.90
4530;DHT22;2277;51.626;7.516;2023-12-28T15:04:18;12.40;99.90
4530;DHT22;2277;51.626;7.516;2023-12-28T15:06:43;12.40;99.90
4530;DHT22;2277;51.626;7.516;2023-12-28T15:09:09;12.40;99.90
4530;DHT22;2277;51.626;7.516;2023-12-28T15:11:35;12.40;99.90
4530;DHT22;2277;51.626;7.516;2023-12-28T15:14:02;12.40;99.90
4530;DHT22;2277;51.626;7.516;2023-12-28T15:16:28;12.40;99.90
4530;DHT22;2277;51.626;7.516;2023-12-28T15:18:54;12.40;99.90
4530;DHT22;2277;51.626;7.516;2023-12-28T15:21:20;12.30;99.90
4530;DHT22;2277;51.626;7.516;2023-12-28T15:23:46;12.30;99.90
4530;DHT22;2277;51.626;7.516;2023-12-28T15:26:13;12.30;99.90
4530;DHT22;2277;51.626;7.516;2023-12-28T15:28:38;12.30;99.90
4530;DHT22;2277;51.626;7.516;2023-12-28T15:31:04;12.20;99.90
4530;DHT22;2277;51.626;7.516;2023-12-28T15:33:30;12.20;99.90
4530;DHT22;2277;51.626;7.516;2023-12-28T15:35:56;12.20;99.90
4530;DHT22;2277;51.626;7.516;2023-12-28T15:38:21;12.20;99.90
4530;DHT22;2277;51.626;7.516;2023-12-28T15:40:47;12.20;99.90
4530;DHT22;2277;51.626;7.516;2023-12-28T15:43:13;12.10;99.90
4530;DHT22;2277;51.626;7.516;2023-12-28T15:45:38;12.10;99.90
4530;DHT22;2277;51.626;7.516;2023-12-28T15:48:04;12.10;99.90
4530;DHT22;2277;51.626;7.516;2023-12-28T15:50:30;12.10;99.90
4530;DHT22;2277;51.626;7.516;2023-12-28T15:52:55;12.10;99.90
4530;DHT22;2277;51.626;7.516;2023-12-28T15:55:22;12.10;99.90
4530;DHT22;2277;51.626;7.516;2023-12-28T15:57:47;12.10;99.90
4530;DHT22;2277;51.626;7.516;2023-12-28T16:00:16;12.00;99.90
4530;DHT22;2277;51.626;7.516;2023-12-28T16:02:41;12.00;99.90
4530;DHT22;2277;51.626;7.516;2023-12-28T16:05:08;12.00;99.90